F/V Stereden Ar Moor — FZZX — position and weather

sailwx.info

Track history (hours):
 
Tides and Currents Weather Stations Pressure Air Temp Water Temp Dewpoint Dewpoint Depression Visibility Wind Speed Wind Dir Waves Ship Positions

F/V Stereden Ar Moor

Last reported at 2017-Dec-03 20:31 UTC. Time now 2017-Dec-11 17:22 UTC.
Position N 48°06' W 004°19'.

Type: Fishing. MMSI: 228167900.

Date/timePositionNaut miles runAvg speedWind from/ knotsBaromVisibWave heightAir tempDewpointWater temp
2017-Dec-03 20:31N 48°06' W 004°19'0 0.0
2017-Dec-03 20:30N 48°06' W 004°19'0 0.3
2017-Dec-03 20:00N 48°06' W 004°19'0 0.0
2017-Dec-03 19:30N 48°06' W 004°19'1 2.1
2017-Dec-03 19:00N 48°07' W 004°20'4 7.8
2017-Dec-03 18:30N 48°08' W 004°26'2 3.2
2017-Dec-03 18:00N 48°08' W 004°28'1 1.3
2017-Dec-03 17:30N 48°08' W 004°27'1 1.1
2017-Dec-03 17:01N 48°09' W 004°26'2 3.6
2017-Dec-03 16:31N 48°07' W 004°24'1 2.0
2017-Dec-03 16:00N 48°07' W 004°23'3 5.4
2017-Dec-03 15:30N 48°06' W 004°19'  
2017-Nov-30 21:33N 48°06' W 004°19'0 0.0
2017-Nov-30 21:30N 48°06' W 004°19'0 0.0
2017-Nov-30 21:00N 48°06' W 004°19'0 0.3
2017-Nov-30 20:30N 48°06' W 004°20'0 0.0
2017-Nov-30 20:00N 48°06' W 004°20'0 0.0
2017-Nov-30 19:30N 48°06' W 004°20'0 0.0
2017-Nov-30 18:58N 48°06' W 004°20'0 0.0
2017-Nov-30 18:30N 48°06' W 004°20'3 6.4
2017-Nov-30 18:00N 48°07' W 004°24'2 4.8
2017-Nov-30 17:30N 48°08' W 004°27'0 0.7
2017-Nov-30 17:01N 48°09' W 004°27'2 4.8
2017-Nov-30 16:31N 48°10' W 004°24'2 4.5
2017-Nov-30 16:00N 48°09' W 004°21'3 0.2
2017-Nov-29 19:35N 48°06' W 004°19'0 0.1
2017-Nov-29 19:31N 48°06' W 004°19'0 0.4
2017-Nov-29 19:00N 48°06' W 004°20'2 4.8
2017-Nov-29 18:31N 48°07' W 004°23'4 8.8
2017-Nov-29 18:01N 48°06' W 004°29'4 7.4
2017-Nov-29 17:31N 48°10' W 004°28'3 5.5
2017-Nov-29 17:00N 48°12' W 004°26'0 0.6
2017-Nov-29 16:30N 48°13' W 004°26'2 3.2
2017-Nov-29 16:00N 48°11' W 004°24'1 2.5
2017-Nov-29 15:30N 48°11' W 004°23'5 9.5
2017-Nov-29 15:00N 48°07' W 004°20'1 0.1
2017-Nov-28 20:42N 48°06' W 004°19'0 0.6
2017-Nov-28 20:30N 48°06' W 004°19'0 0.0
2017-Nov-28 20:00N 48°06' W 004°19'3 5.6
2017-Nov-28 19:30N 48°07' W 004°23'4 8.4
2017-Nov-28 19:01N 48°08' W 004°29'0 0.6
2017-Nov-28 18:31N 48°08' W 004°30'1 1.5
2017-Nov-28 18:00N 48°08' W 004°29'1 1.7
2017-Nov-28 17:31N 48°09' W 004°29'1 1.9
2017-Nov-28 17:01N 48°10' W 004°30'1 2.4
2017-Nov-28 16:31N 48°11' W 004°29'3 5.6
2017-Nov-28 16:00N 48°09' W 004°25'5 0.2
2017-Nov-27 18:28N 48°06' W 004°19'2 4.2
2017-Nov-27 18:01N 48°07' W 004°21'4 8.5
2017-Nov-27 17:31N 48°10' W 004°25'2 4.1
2017-Nov-27 17:01N 48°11' W 004°28'2 4.7
2017-Nov-27 16:30N 48°13' W 004°29'4 7.8
2017-Nov-27 16:01N 48°09' W 004°27'4 8.7
2017-Nov-27 15:30N 48°07' W 004°22'2 0.1
2017-Nov-27 00:23N 48°06' W 004°19'0 0.4
2017-Nov-27 00:00N 48°06' W 004°19'0 0.0
2017-Nov-26 23:31N 48°06' W 004°19'0 0.0
2017-Nov-26 23:00N 48°06' W 004°19'0 0.0
2017-Nov-26 22:31N 48°06' W 004°19'0 0.0
2017-Nov-26 22:01N 48°06' W 004°19'1 1.8
2017-Nov-26 21:31N 48°07' W 004°20'4 8.0
2017-Nov-26 21:00N 48°08' W 004°26'3 6.1
2017-Nov-26 20:31N 48°09' W 004°30'0 0.2
2017-Nov-26 20:01N 48°09' W 004°30'4 7.7
2017-Nov-26 19:30N 48°11' W 004°25'2 3.5
2017-Nov-26 19:01N 48°11' W 004°22'2 5.0
2017-Nov-26 18:30N 48°08' W 004°24'0 0.3
2017-Nov-26 18:01N 48°08' W 004°24'2 4.9
2017-Nov-26 17:30N 48°10' W 004°27'0 0.4
2017-Nov-26 17:00N 48°10' W 004°27'1 2.3
2017-Nov-26 16:30N 48°09' W 004°26'1 2.2
2017-Nov-26 16:01N 48°09' W 004°25'4 7.3
2017-Nov-26 15:30N 48°08' W 004°20'3 5.2
2017-Nov-26 15:00N 48°06' W 004°19'  
2017-Nov-24 00:49N 48°06' W 004°19'0 0.0
2017-Nov-24 00:30N 48°06' W 004°19'0 0.0
2017-Nov-24 00:00N 48°06' W 004°19'0 0.0
2017-Nov-23 23:31N 48°06' W 004°19'0 0.0
2017-Nov-23 23:00N 48°06' W 004°19'0 0.0
2017-Nov-23 22:30N 48°06' W 004°19'0 0.0
2017-Nov-23 22:01N 48°06' W 004°19'0 0.0
2017-Nov-23 21:30N 48°06' W 004°19'0 0.0
2017-Nov-23 21:01N 48°06' W 004°19'  
Track history (hours):
 
Tides and Currents Weather Stations Pressure Air Temp Water Temp Dewpoint Dewpoint Depression Visibility Wind Speed Wind Dir Waves Ship Positions

F/V Stereden Ar Moor

Last reported at 2017-Dec-03 20:31 UTC. Time now 2017-Dec-11 17:22 UTC.
Position N 48°06' W 004°19'.

Type: Fishing. MMSI: 228167900.

Date/timePositionNaut miles runAvg speedWind from/ knotsBaromVisibWave heightAir tempDewpointWater temp
2017-Dec-03 20:31N 48°06' W 004°19'0 0.0
2017-Dec-03 20:30N 48°06' W 004°19'0 0.3
2017-Dec-03 20:00N 48°06' W 004°19'0 0.0
2017-Dec-03 19:30N 48°06' W 004°19'1 2.1
2017-Dec-03 19:00N 48°07' W 004°20'4 7.8
2017-Dec-03 18:30N 48°08' W 004°26'2 3.2
2017-Dec-03 18:00N 48°08' W 004°28'1 1.3
2017-Dec-03 17:30N 48°08' W 004°27'1 1.1
2017-Dec-03 17:01N 48°09' W 004°26'2 3.6
2017-Dec-03 16:31N 48°07' W 004°24'1 2.0
2017-Dec-03 16:00N 48°07' W 004°23'3 5.4
2017-Dec-03 15:30N 48°06' W 004°19'  
2017-Nov-30 21:33N 48°06' W 004°19'0 0.0
2017-Nov-30 21:30N 48°06' W 004°19'0 0.0
2017-Nov-30 21:00N 48°06' W 004°19'0 0.3
2017-Nov-30 20:30N 48°06' W 004°20'0 0.0
2017-Nov-30 20:00N 48°06' W 004°20'0 0.0
2017-Nov-30 19:30N 48°06' W 004°20'0 0.0
2017-Nov-30 18:58N 48°06' W 004°20'0 0.0
2017-Nov-30 18:30N 48°06' W 004°20'3 6.4
2017-Nov-30 18:00N 48°07' W 004°24'2 4.8
2017-Nov-30 17:30N 48°08' W 004°27'0 0.7
2017-Nov-30 17:01N 48°09' W 004°27'2 4.8
2017-Nov-30 16:31N 48°10' W 004°24'2 4.5
2017-Nov-30 16:00N 48°09' W 004°21'3 0.2
2017-Nov-29 19:35N 48°06' W 004°19'0 0.1
2017-Nov-29 19:31N 48°06' W 004°19'0 0.4
2017-Nov-29 19:00N 48°06' W 004°20'2 4.8
2017-Nov-29 18:31N 48°07' W 004°23'4 8.8
2017-Nov-29 18:01N 48°06' W 004°29'4 7.4
2017-Nov-29 17:31N 48°10' W 004°28'3 5.5
2017-Nov-29 17:00N 48°12' W 004°26'0 0.6
2017-Nov-29 16:30N 48°13' W 004°26'2 3.2
2017-Nov-29 16:00N 48°11' W 004°24'1 2.5
2017-Nov-29 15:30N 48°11' W 004°23'5 9.5
2017-Nov-29 15:00N 48°07' W 004°20'1 0.1
2017-Nov-28 20:42N 48°06' W 004°19'0 0.6
2017-Nov-28 20:30N 48°06' W 004°19'0 0.0
2017-Nov-28 20:00N 48°06' W 004°19'3 5.6
2017-Nov-28 19:30N 48°07' W 004°23'4 8.4
2017-Nov-28 19:01N 48°08' W 004°29'0 0.6
2017-Nov-28 18:31N 48°08' W 004°30'1 1.5
2017-Nov-28 18:00N 48°08' W 004°29'1 1.7
2017-Nov-28 17:31N 48°09' W 004°29'1 1.9
2017-Nov-28 17:01N 48°10' W 004°30'1 2.4
2017-Nov-28 16:31N 48°11' W 004°29'3 5.6
2017-Nov-28 16:00N 48°09' W 004°25'5 0.2
2017-Nov-27 18:28N 48°06' W 004°19'2 4.2
2017-Nov-27 18:01N 48°07' W 004°21'4 8.5
2017-Nov-27 17:31N 48°10' W 004°25'2 4.1
2017-Nov-27 17:01N 48°11' W 004°28'2 4.7
2017-Nov-27 16:30N 48°13' W 004°29'4 7.8
2017-Nov-27 16:01N 48°09' W 004°27'4 8.7
2017-Nov-27 15:30N 48°07' W 004°22'2 0.1
2017-Nov-27 00:23N 48°06' W 004°19'0 0.4
2017-Nov-27 00:00N 48°06' W 004°19'0 0.0
2017-Nov-26 23:31N 48°06' W 004°19'0 0.0
2017-Nov-26 23:00N 48°06' W 004°19'0 0.0
2017-Nov-26 22:31N 48°06' W 004°19'0 0.0
2017-Nov-26 22:01N 48°06' W 004°19'1 1.8
2017-Nov-26 21:31N 48°07' W 004°20'4 8.0
2017-Nov-26 21:00N 48°08' W 004°26'3 6.1
2017-Nov-26 20:31N 48°09' W 004°30'0 0.2
2017-Nov-26 20:01N 48°09' W 004°30'4 7.7
2017-Nov-26 19:30N 48°11' W 004°25'2 3.5
2017-Nov-26 19:01N 48°11' W 004°22'2 5.0
2017-Nov-26 18:30N 48°08' W 004°24'0 0.3
2017-Nov-26 18:01N 48°08' W 004°24'2 4.9
2017-Nov-26 17:30N 48°10' W 004°27'0 0.4
2017-Nov-26 17:00N 48°10' W 004°27'1 2.3
2017-Nov-26 16:30N 48°09' W 004°26'1 2.2
2017-Nov-26 16:01N 48°09' W 004°25'4 7.3
2017-Nov-26 15:30N 48°08' W 004°20'3 5.2
2017-Nov-26 15:00N 48°06' W 004°19'  
2017-Nov-24 00:49N 48°06' W 004°19'0 0.0
2017-Nov-24 00:30N 48°06' W 004°19'0 0.0
2017-Nov-24 00:00N 48°06' W 004°19'0 0.0
2017-Nov-23 23:31N 48°06' W 004°19'0 0.0
2017-Nov-23 23:00N 48°06' W 004°19'0 0.0
2017-Nov-23 22:30N 48°06' W 004°19'0 0.0
2017-Nov-23 22:01N 48°06' W 004°19'0 0.0
2017-Nov-23 21:30N 48°06' W 004°19'0 0.0
2017-Nov-23 21:01N 48°06' W 004°19'  

Dump ship's entire track history